sensor_id;sensor_type;location;lat;lon;timestamp;P1;durP1;ratioP1;P2;durP2;ratioP2
63046;SDS011;62025;39.238;9.126;2023-07-13T00:00:30;21.20;;;6.28;;
63046;SDS011;62025;39.238;9.126;2023-07-13T00:02:57;19.00;;;5.72;;
63046;SDS011;62025;39.238;9.126;2023-07-13T00:05:23;19.65;;;5.28;;
63046;SDS011;62025;39.238;9.126;2023-07-13T00:07:49;19.70;;;5.22;;
63046;SDS011;62025;39.238;9.126;2023-07-13T00:12:43;14.25;;;4.85;;
63046;SDS011;62025;39.238;9.126;2023-07-13T00:15:12;12.75;;;5.10;;
63046;SDS011;62025;39.238;9.126;2023-07-13T00:17:49;17.95;;;5.15;;
63046;SDS011;62025;39.238;9.126;2023-07-13T00:20:17;14.48;;;5.00;;
63046;SDS011;62025;39.238;9.126;2023-07-13T00:22:43;17.30;;;5.18;;
63046;SDS011;62025;39.238;9.126;2023-07-13T00:25:12;17.92;;;5.45;;
63046;SDS011;62025;39.238;9.126;2023-07-13T00:27:38;16.38;;;5.53;;
63046;SDS011;62025;39.238;9.126;2023-07-13T00:30:04;13.38;;;5.00;;
63046;SDS011;62025;39.238;9.126;2023-07-13T00:32:31;16.77;;;5.20;;
63046;SDS011;62025;39.238;9.126;2023-07-13T00:34:58;17.87;;;5.57;;
63046;SDS011;62025;39.238;9.126;2023-07-13T00:37:25;14.35;;;5.00;;
63046;SDS011;62025;39.238;9.126;2023-07-13T00:39:51;12.32;;;5.50;;
63046;SDS011;62025;39.238;9.126;2023-07-13T00:42:17;11.27;;;5.13;;
63046;SDS011;62025;39.238;9.126;2023-07-13T00:46:02;14.88;;;5.68;;
63046;SDS011;62025;39.238;9.126;2023-07-13T00:47:49;18.20;;;6.00;;
63046;SDS011;62025;39.238;9.126;2023-07-13T00:50:16;19.45;;;5.72;;
63046;SDS011;62025;39.238;9.126;2023-07-13T00:52:46;18.17;;;5.85;;
63046;SDS011;62025;39.238;9.126;2023-07-13T00:55:18;13.98;;;5.28;;
63046;SDS011;62025;39.238;9.126;2023-07-13T00:57:47;18.88;;;5.60;;
63046;SDS011;62025;39.238;9.126;2023-07-13T01:00:14;13.85;;;5.40;;
63046;SDS011;62025;39.238;9.126;2023-07-13T01:02:42;12.82;;;5.25;;
63046;SDS011;62025;39.238;9.126;2023-07-13T01:05:12;13.50;;;5.57;;
63046;SDS011;62025;39.238;9.126;2023-07-13T01:07:44;14.43;;;5.13;;
63046;SDS011;62025;39.238;9.126;2023-07-13T01:10:13;17.17;;;5.68;;
63046;SDS011;62025;39.238;9.126;2023-07-13T01:12:40;15.02;;;5.28;;
63046;SDS011;62025;39.238;9.126;2023-07-13T01:15:32;12.88;;;5.15;;
63046;SDS011;62025;39.238;9.126;2023-07-13T01:20:32;15.77;;;5.22;;
63046;SDS011;62025;39.238;9.126;2023-07-13T01:23:09;23.73;;;5.32;;
63046;SDS011;62025;39.238;9.126;2023-07-13T01:25:38;18.27;;;4.97;;
63046;SDS011;62025;39.238;9.126;2023-07-13T01:28:05;14.93;;;5.60;;
63046;SDS011;62025;39.238;9.126;2023-07-13T01:30:34;17.10;;;5.57;;
63046;SDS011;62025;39.238;9.126;2023-07-13T01:33:03;13.98;;;5.68;;
63046;SDS011;62025;39.238;9.126;2023-07-13T01:35:29;16.77;;;5.40;;
63046;SDS011;62025;39.238;9.126;2023-07-13T01:37:55;20.02;;;6.10;;
63046;SDS011;62025;39.238;9.126;2023-07-13T01:40:22;12.23;;;5.22;;
63046;SDS011;62025;39.238;9.126;2023-07-13T01:42:48;19.40;;;5.07;;
63046;SDS011;62025;39.238;9.126;2023-07-13T01:45:14;14.23;;;4.68;;
63046;SDS011;62025;39.238;9.126;2023-07-13T01:47:40;14.68;;;5.47;;
63046;SDS011;62025;39.238;9.126;2023-07-13T01:50:06;15.70;;;5.30;;
63046;SDS011;62025;39.238;9.126;2023-07-13T01:52:32;15.93;;;5.40;;
63046;SDS011;62025;39.238;9.126;2023-07-13T01:54:58;15.60;;;5.18;;
63046;SDS011;62025;39.238;9.126;2023-07-13T01:57:24;14.32;;;6.13;;
63046;SDS011;62025;39.238;9.126;2023-07-13T01:59:50;21.63;;;5.20;;
63046;SDS011;62025;39.238;9.126;2023-07-13T02:02:16;13.68;;;4.82;;
63046;SDS011;62025;39.238;9.126;2023-07-13T02:04:42;15.35;;;5.38;;
63046;SDS011;62025;39.238;9.126;2023-07-13T02:07:08;19.20;;;5.30;;
63046;SDS011;62025;39.238;9.126;2023-07-13T02:09:34;20.38;;;5.65;;
63046;SDS011;62025;39.238;9.126;2023-07-13T02:12:00;18.35;;;5.68;;
63046;SDS011;62025;39.238;9.126;2023-07-13T02:14:32;11.18;;;5.47;;
63046;SDS011;62025;39.238;9.126;2023-07-13T02:16:58;11.90;;;5.00;;
63046;SDS011;62025;39.238;9.126;2023-07-13T02:19:24;15.88;;;5.35;;
63046;SDS011;62025;39.238;9.126;2023-07-13T02:21:50;20.40;;;5.00;;
63046;SDS011;62025;39.238;9.126;2023-07-13T02:24:16;17.58;;;5.57;;
63046;SDS011;62025;39.238;9.126;2023-07-13T02:26:43;15.48;;;5.38;;
63046;SDS011;62025;39.238;9.126;2023-07-13T02:29:10;16.30;;;6.00;;
63046;SDS011;62025;39.238;9.126;2023-07-13T02:31:36;18.58;;;6.95;;
63046;SDS011;62025;39.238;9.126;2023-07-13T02:34:03;21.77;;;5.47;;
63046;SDS011;62025;39.238;9.126;2023-07-13T02:36:29;11.85;;;4.97;;
63046;SDS011;62025;39.238;9.126;2023-07-13T02:38:57;16.65;;;5.40;;
63046;SDS011;62025;39.238;9.126;2023-07-13T02:41:26;15.05;;;5.35;;
63046;SDS011;62025;39.238;9.126;2023-07-13T02:43:52;16.15;;;5.60;;
63046;SDS011;62025;39.238;9.126;2023-07-13T02:46:18;12.60;;;5.20;;
63046;SDS011;62025;39.238;9.126;2023-07-13T02:48:44;18.05;;;5.65;;
63046;SDS011;62025;39.238;9.126;2023-07-13T02:51:12;19.25;;;5.70;;
63046;SDS011;62025;39.238;9.126;2023-07-13T02:53:38;11.18;;;4.90;;
63046;SDS011;62025;39.238;9.126;2023-07-13T02:56:04;13.38;;;5.05;;
63046;SDS011;62025;39.238;9.126;2023-07-13T02:58:30;17.92;;;5.80;;
63046;SDS011;62025;39.238;9.126;2023-07-13T03:00:57;18.95;;;5.88;;
63046;SDS011;62025;39.238;9.126;2023-07-13T03:03:23;15.70;;;5.75;;
63046;SDS011;62025;39.238;9.126;2023-07-13T03:05:57;18.58;;;5.60;;
63046;SDS011;62025;39.238;9.126;2023-07-13T03:08:28;15.05;;;5.72;;
63046;SDS011;62025;39.238;9.126;2023-07-13T03:13:34;17.63;;;5.63;;
63046;SDS011;62025;39.238;9.126;2023-07-13T03:16:02;17.95;;;5.55;;
63046;SDS011;62025;39.238;9.126;2023-07-13T03:18:30;14.05;;;5.70;;
63046;SDS011;62025;39.238;9.126;2023-07-13T03:21:00;21.33;;;6.32;;
63046;SDS011;62025;39.238;9.126;2023-07-13T03:23:26;14.52;;;5.68;;
63046;SDS011;62025;39.238;9.126;2023-07-13T03:26:05;13.07;;;6.18;;
63046;SDS011;62025;39.238;9.126;2023-07-13T03:28:39;13.00;;;5.85;;
63046;SDS011;62025;39.238;9.126;2023-07-13T03:31:15;13.77;;;5.75;;
63046;SDS011;62025;39.238;9.126;2023-07-13T03:33:44;12.93;;;5.40;;
63046;SDS011;62025;39.238;9.126;2023-07-13T03:36:16;17.83;;;5.87;;
63046;SDS011;62025;39.238;9.126;2023-07-13T03:38:49;19.75;;;5.97;;
63046;SDS011;62025;39.238;9.126;2023-07-13T03:41:21;14.63;;;6.28;;
63046;SDS011;62025;39.238;9.126;2023-07-13T03:43:50;16.98;;;6.18;;
63046;SDS011;62025;39.238;9.126;2023-07-13T03:46:19;14.63;;;5.85;;
63046;SDS011;62025;39.238;9.126;2023-07-13T03:48:46;18.15;;;6.05;;
63046;SDS011;62025;39.238;9.126;2023-07-13T03:51:13;13.80;;;6.47;;
63046;SDS011;62025;39.238;9.126;2023-07-13T03:56:10;15.82;;;6.10;;
63046;SDS011;62025;39.238;9.126;2023-07-13T03:58:39;19.33;;;6.30;;
63046;SDS011;62025;39.238;9.126;2023-07-13T04:01:14;17.17;;;6.43;;
63046;SDS011;62025;39.238;9.126;2023-07-13T04:03:42;18.08;;;6.07;;
63046;SDS011;62025;39.238;9.126;2023-07-13T04:06:14;19.75;;;6.68;;
63046;SDS011;62025;39.238;9.126;2023-07-13T04:08:55;18.88;;;6.75;;
63046;SDS011;62025;39.238;9.126;2023-07-13T04:11:24;13.75;;;5.50;;
63046;SDS011;62025;39.238;9.126;2023-07-13T04:13:53;11.45;;;6.00;;
63046;SDS011;62025;39.238;9.126;2023-07-13T04:16:20;15.57;;;6.05;;
63046;SDS011;62025;39.238;9.126;2023-07-13T04:18:47;15.52;;;6.00;;
63046;SDS011;62025;39.238;9.126;2023-07-13T04:21:14;13.45;;;5.68;;
63046;SDS011;62025;39.238;9.126;2023-07-13T04:23:41;13.32;;;6.20;;
63046;SDS011;62025;39.238;9.126;2023-07-13T04:26:08;18.83;;;6.13;;
63046;SDS011;62025;39.238;9.126;2023-07-13T04:28:34;15.13;;;6.13;;
63046;SDS011;62025;39.238;9.126;2023-07-13T04:31:00;15.70;;;6.07;;
63046;SDS011;62025;39.238;9.126;2023-07-13T04:33:27;19.85;;;6.95;;
63046;SDS011;62025;39.238;9.126;2023-07-13T04:35:53;13.85;;;6.20;;
63046;SDS011;62025;39.238;9.126;2023-07-13T04:38:25;17.98;;;6.60;;
63046;SDS011;62025;39.238;9.126;2023-07-13T04:40:55;13.18;;;6.40;;
63046;SDS011;62025;39.238;9.126;2023-07-13T04:43:26;14.50;;;5.90;;
63046;SDS011;62025;39.238;9.126;2023-07-13T04:45:53;15.77;;;6.35;;
63046;SDS011;62025;39.238;9.126;2023-07-13T04:48:20;13.98;;;5.75;;
63046;SDS011;62025;39.238;9.126;2023-07-13T04:50:47;15.10;;;6.03;;
63046;SDS011;62025;39.238;9.126;2023-07-13T04:53:20;15.43;;;6.18;;
63046;SDS011;62025;39.238;9.126;2023-07-13T04:55:46;16.90;;;5.88;;
63046;SDS011;62025;39.238;9.126;2023-07-13T04:58:12;14.10;;;6.22;;
63046;SDS011;62025;39.238;9.126;2023-07-13T05:00:38;20.55;;;6.50;;
63046;SDS011;62025;39.238;9.126;2023-07-13T05:03:05;19.23;;;5.65;;
63046;SDS011;62025;39.238;9.126;2023-07-13T05:05:31;17.73;;;6.13;;
63046;SDS011;62025;39.238;9.126;2023-07-13T05:07:57;16.55;;;5.95;;
63046;SDS011;62025;39.238;9.126;2023-07-13T05:10:23;19.42;;;6.32;;
63046;SDS011;62025;39.238;9.126;2023-07-13T05:12:49;15.32;;;6.55;;
63046;SDS011;62025;39.238;9.126;2023-07-13T05:15:15;14.35;;;6.50;;
63046;SDS011;62025;39.238;9.126;2023-07-13T05:17:46;20.05;;;6.30;;
63046;SDS011;62025;39.238;9.126;2023-07-13T05:20:13;17.48;;;6.20;;
63046;SDS011;62025;39.238;9.126;2023-07-13T05:22:41;22.65;;;6.32;;
63046;SDS011;62025;39.238;9.126;2023-07-13T05:25:07;17.90;;;6.18;;
63046;SDS011;62025;39.238;9.126;2023-07-13T05:27:34;15.80;;;6.07;;
63046;SDS011;62025;39.238;9.126;2023-07-13T05:30:01;15.85;;;5.53;;
63046;SDS011;62025;39.238;9.126;2023-07-13T05:34:54;16.90;;;5.65;;
63046;SDS011;62025;39.238;9.126;2023-07-13T05:37:21;17.65;;;5.90;;
63046;SDS011;62025;39.238;9.126;2023-07-13T05:39:47;21.73;;;5.68;;
63046;SDS011;62025;39.238;9.126;2023-07-13T05:42:13;20.45;;;5.45;;
63046;SDS011;62025;39.238;9.126;2023-07-13T05:44:39;20.92;;;6.00;;
63046;SDS011;62025;39.238;9.126;2023-07-13T05:47:05;24.58;;;5.95;;
63046;SDS011;62025;39.238;9.126;2023-07-13T05:49:32;16.05;;;6.13;;
63046;SDS011;62025;39.238;9.126;2023-07-13T05:51:58;13.45;;;5.80;;
63046;SDS011;62025;39.238;9.126;2023-07-13T05:54:24;19.98;;;5.80;;
63046;SDS011;62025;39.238;9.126;2023-07-13T05:56:50;15.77;;;5.68;;
63046;SDS011;62025;39.238;9.126;2023-07-13T05:59:17;20.73;;;5.80;;
63046;SDS011;62025;39.238;9.126;2023-07-13T06:01:43;19.95;;;5.72;;
63046;SDS011;62025;39.238;9.126;2023-07-13T06:04:09;26.02;;;6.53;;
63046;SDS011;62025;39.238;9.126;2023-07-13T06:06:35;21.45;;;6.10;;
63046;SDS011;62025;39.238;9.126;2023-07-13T06:09:01;23.08;;;6.35;;
63046;SDS011;62025;39.238;9.126;2023-07-13T06:11:27;19.73;;;5.70;;
63046;SDS011;62025;39.238;9.126;2023-07-13T06:13:55;17.02;;;5.45;;
63046;SDS011;62025;39.238;9.126;2023-07-13T06:16:22;20.63;;;5.88;;
63046;SDS011;62025;39.238;9.126;2023-07-13T06:18:48;20.05;;;5.28;;
63046;SDS011;62025;39.238;9.126;2023-07-13T06:21:18;17.67;;;5.40;;
63046;SDS011;62025;39.238;9.126;2023-07-13T06:23:46;16.30;;;5.68;;
63046;SDS011;62025;39.238;9.126;2023-07-13T06:26:14;18.70;;;5.47;;
63046;SDS011;62025;39.238;9.126;2023-07-13T06:28:40;15.48;;;5.03;;
63046;SDS011;62025;39.238;9.126;2023-07-13T06:31:07;17.30;;;5.43;;
63046;SDS011;62025;39.238;9.126;2023-07-13T06:33:35;16.08;;;5.30;;
63046;SDS011;62025;39.238;9.126;2023-07-13T06:36:03;18.25;;;5.00;;
63046;SDS011;62025;39.238;9.126;2023-07-13T06:40:56;22.75;;;5.45;;
63046;SDS011;62025;39.238;9.126;2023-07-13T06:43:22;17.65;;;5.47;;
63046;SDS011;62025;39.238;9.126;2023-07-13T06:45:50;19.73;;;5.97;;
63046;SDS011;62025;39.238;9.126;2023-07-13T06:48:19;15.32;;;5.30;;
63046;SDS011;62025;39.238;9.126;2023-07-13T06:50:45;18.35;;;5.53;;
63046;SDS011;62025;39.238;9.126;2023-07-13T06:53:14;23.80;;;5.53;;
63046;SDS011;62025;39.238;9.126;2023-07-13T06:55:43;22.75;;;5.40;;
63046;SDS011;62025;39.238;9.126;2023-07-13T06:58:10;24.35;;;5.40;;
63046;SDS011;62025;39.238;9.126;2023-07-13T07:00:36;12.27;;;5.40;;
63046;SDS011;62025;39.238;9.126;2023-07-13T07:03:02;15.70;;;4.95;;
63046;SDS011;62025;39.238;9.126;2023-07-13T07:05:28;24.00;;;5.43;;
63046;SDS011;62025;39.238;9.126;2023-07-13T07:07:54;16.63;;;5.15;;
63046;SDS011;62025;39.238;9.126;2023-07-13T07:10:21;28.90;;;5.03;;
63046;SDS011;62025;39.238;9.126;2023-07-13T07:12:47;23.13;;;5.78;;
63046;SDS011;62025;39.238;9.126;2023-07-13T07:15:13;25.13;;;5.60;;
63046;SDS011;62025;39.238;9.126;2023-07-13T07:17:39;25.35;;;5.40;;
63046;SDS011;62025;39.238;9.126;2023-07-13T07:20:05;20.83;;;5.88;;
63046;SDS011;62025;39.238;9.126;2023-07-13T07:22:32;23.85;;;5.57;;
63046;SDS011;62025;39.238;9.126;2023-07-13T07:24:59;18.15;;;4.45;;
63046;SDS011;62025;39.238;9.126;2023-07-13T07:27:25;20.52;;;5.03;;
63046;SDS011;62025;39.238;9.126;2023-07-13T07:29:52;21.42;;;5.05;;
63046;SDS011;62025;39.238;9.126;2023-07-13T07:32:19;30.35;;;5.47;;
63046;SDS011;62025;39.238;9.126;2023-07-13T07:34:45;26.52;;;5.38;;
63046;SDS011;62025;39.238;9.126;2023-07-13T07:37:12;25.67;;;5.70;;
63046;SDS011;62025;39.238;9.126;2023-07-13T07:42:05;21.75;;;5.70;;
63046;SDS011;62025;39.238;9.126;2023-07-13T07:44:32;25.45;;;6.18;;
63046;SDS011;62025;39.238;9.126;2023-07-13T07:46:59;23.63;;;6.07;;
63046;SDS011;62025;39.238;9.126;2023-07-13T07:49:25;17.85;;;5.38;;
63046;SDS011;62025;39.238;9.126;2023-07-13T07:51:51;21.95;;;5.00;;
63046;SDS011;62025;39.238;9.126;2023-07-13T07:54:17;26.23;;;5.32;;
63046;SDS011;62025;39.238;9.126;2023-07-13T07:56:43;19.35;;;5.68;;
63046;SDS011;62025;39.238;9.126;2023-07-13T07:59:09;26.80;;;5.65;;
63046;SDS011;62025;39.238;9.126;2023-07-13T08:01:36;20.23;;;5.18;;
63046;SDS011;62025;39.238;9.126;2023-07-13T08:04:02;24.02;;;5.82;;
63046;SDS011;62025;39.238;9.126;2023-07-13T08:06:28;29.27;;;5.90;;
63046;SDS011;62025;39.238;9.126;2023-07-13T08:08:54;20.40;;;5.10;;
63046;SDS011;62025;39.238;9.126;2023-07-13T08:11:21;22.67;;;5.65;;
63046;SDS011;62025;39.238;9.126;2023-07-13T08:13:49;20.63;;;5.47;;
63046;SDS011;62025;39.238;9.126;2023-07-13T08:16:15;23.92;;;5.28;;
63046;SDS011;62025;39.238;9.126;2023-07-13T08:18:41;20.58;;;5.90;;
63046;SDS011;62025;39.238;9.126;2023-07-13T08:21:08;19.85;;;5.15;;
63046;SDS011;62025;39.238;9.126;2023-07-13T08:23:34;19.67;;;5.50;;
63046;SDS011;62025;39.238;9.126;2023-07-13T08:26:01;16.77;;;5.60;;
63046;SDS011;62025;39.238;9.126;2023-07-13T08:28:28;23.70;;;5.30;;
63046;SDS011;62025;39.238;9.126;2023-07-13T08:30:54;22.05;;;6.10;;
63046;SDS011;62025;39.238;9.126;2023-07-13T08:33:21;18.70;;;5.20;;
63046;SDS011;62025;39.238;9.126;2023-07-13T08:35:50;23.33;;;5.65;;
63046;SDS011;62025;39.238;9.126;2023-07-13T08:38:17;21.73;;;5.47;;
63046;SDS011;62025;39.238;9.126;2023-07-13T08:40:43;20.63;;;6.00;;
63046;SDS011;62025;39.238;9.126;2023-07-13T08:43:16;20.30;;;5.40;;
63046;SDS011;62025;39.238;9.126;2023-07-13T08:45:52;21.48;;;5.90;;
63046;SDS011;62025;39.238;9.126;2023-07-13T08:48:34;21.65;;;5.88;;
63046;SDS011;62025;39.238;9.126;2023-07-13T08:53:52;22.73;;;6.57;;
63046;SDS011;62025;39.238;9.126;2023-07-13T08:56:26;21.35;;;6.00;;
63046;SDS011;62025;39.238;9.126;2023-07-13T08:58:56;24.58;;;6.95;;
63046;SDS011;62025;39.238;9.126;2023-07-13T09:13:18;18.95;;;5.95;;
63046;SDS011;62025;39.238;9.126;2023-07-13T09:15:59;20.70;;;5.85;;
63046;SDS011;62025;39.238;9.126;2023-07-13T09:23:35;18.15;;;5.38;;
63046;SDS011;62025;39.238;9.126;2023-07-13T09:28:59;24.15;;;5.60;;
63046;SDS011;62025;39.238;9.126;2023-07-13T09:31:49;24.92;;;5.97;;
63046;SDS011;62025;39.238;9.126;2023-07-13T09:34:21;18.50;;;5.63;;
63046;SDS011;62025;39.238;9.126;2023-07-13T09:36:46;22.10;;;5.80;;
63046;SDS011;62025;39.238;9.126;2023-07-13T09:39:26;18.33;;;5.65;;
63046;SDS011;62025;39.238;9.126;2023-07-13T09:41:57;17.95;;;5.70;;
63046;SDS011;62025;39.238;9.126;2023-07-13T09:44:35;17.90;;;5.72;;
63046;SDS011;62025;39.238;9.126;2023-07-13T09:47:12;18.42;;;6.28;;
63046;SDS011;62025;39.238;9.126;2023-07-13T09:49:43;21.52;;;5.57;;
63046;SDS011;62025;39.238;9.126;2023-07-13T09:52:14;25.30;;;6.05;;
63046;SDS011;62025;39.238;9.126;2023-07-13T09:54:45;23.65;;;5.68;;
63046;SDS011;62025;39.238;9.126;2023-07-13T09:57:15;18.50;;;5.30;;
63046;SDS011;62025;39.238;9.126;2023-07-13T09:59:46;21.40;;;5.72;;
63046;SDS011;62025;39.238;9.126;2023-07-13T10:02:33;15.25;;;5.30;;
63046;SDS011;62025;39.238;9.126;2023-07-13T10:05:05;18.50;;;5.20;;
63046;SDS011;62025;39.238;9.126;2023-07-13T10:07:42;18.08;;;5.70;;
63046;SDS011;62025;39.238;9.126;2023-07-13T10:10:14;18.40;;;5.70;;
63046;SDS011;62025;39.238;9.126;2023-07-13T10:12:46;18.98;;;5.80;;
63046;SDS011;62025;39.238;9.126;2023-07-13T10:15:17;20.00;;;5.55;;
63046;SDS011;62025;39.238;9.126;2023-07-13T10:17:48;20.10;;;5.63;;
63046;SDS011;62025;39.238;9.126;2023-07-13T10:20:16;23.00;;;5.90;;
63046;SDS011;62025;39.238;9.126;2023-07-13T10:22:56;27.55;;;5.93;;
63046;SDS011;62025;39.238;9.126;2023-07-13T10:25:32;20.48;;;5.70;;
63046;SDS011;62025;39.238;9.126;2023-07-13T10:28:04;24.75;;;5.85;;
63046;SDS011;62025;39.238;9.126;2023-07-13T10:30:39;18.98;;;5.40;;
63046;SDS011;62025;39.238;9.126;2023-07-13T10:33:10;15.45;;;5.47;;
63046;SDS011;62025;39.238;9.126;2023-07-13T10:35:38;21.60;;;5.93;;
63046;SDS011;62025;39.238;9.126;2023-07-13T10:38:13;13.35;;;5.90;;
63046;SDS011;62025;39.238;9.126;2023-07-13T10:40:48;17.10;;;5.80;;
63046;SDS011;62025;39.238;9.126;2023-07-13T10:43:48;15.88;;;5.70;;
63046;SDS011;62025;39.238;9.126;2023-07-13T10:46:18;18.58;;;5.40;;
63046;SDS011;62025;39.238;9.126;2023-07-13T10:48:49;18.88;;;5.93;;
63046;SDS011;62025;39.238;9.126;2023-07-13T10:51:21;17.30;;;5.78;;
63046;SDS011;62025;39.238;9.126;2023-07-13T10:54:10;18.58;;;5.63;;
63046;SDS011;62025;39.238;9.126;2023-07-13T10:57:37;20.00;;;6.07;;
63046;SDS011;62025;39.238;9.126;2023-07-13T10:59:38;20.65;;;5.28;;
63046;SDS011;62025;39.238;9.126;2023-07-13T11:04:42;18.02;;;5.70;;
63046;SDS011;62025;39.238;9.126;2023-07-13T11:07:20;13.45;;;5.25;;
63046;SDS011;62025;39.238;9.126;2023-07-13T11:09:55;14.20;;;5.68;;
63046;SDS011;62025;39.238;9.126;2023-07-13T11:15:26;18.30;;;6.20;;
63046;SDS011;62025;39.238;9.126;2023-07-13T11:17:59;22.00;;;6.32;;
63046;SDS011;62025;39.238;9.126;2023-07-13T11:20:36;16.42;;;5.75;;
63046;SDS011;62025;39.238;9.126;2023-07-13T11:25:43;25.08;;;5.95;;
63046;SDS011;62025;39.238;9.126;2023-07-13T11:33:22;24.98;;;6.10;;
63046;SDS011;62025;39.238;9.126;2023-07-13T11:41:14;18.35;;;6.60;;
63046;SDS011;62025;39.238;9.126;2023-07-13T11:43:44;20.80;;;5.68;;
63046;SDS011;62025;39.238;9.126;2023-07-13T11:46:29;14.13;;;6.28;;
63046;SDS011;62025;39.238;9.126;2023-07-13T11:48:55;15.07;;;5.95;;
63046;SDS011;62025;39.238;9.126;2023-07-13T11:56:30;19.88;;;5.97;;
63046;SDS011;62025;39.238;9.126;2023-07-13T11:58:57;14.25;;;6.25;;
63046;SDS011;62025;39.238;9.126;2023-07-13T12:01:33;15.38;;;6.13;;
63046;SDS011;62025;39.238;9.126;2023-07-13T12:04:08;17.65;;;6.45;;
63046;SDS011;62025;39.238;9.126;2023-07-13T12:07:16;16.85;;;6.20;;
63046;SDS011;62025;39.238;9.126;2023-07-13T12:09:44;20.48;;;6.78;;
63046;SDS011;62025;39.238;9.126;2023-07-13T12:12:14;19.20;;;6.57;;
63046;SDS011;62025;39.238;9.126;2023-07-13T12:14:44;16.83;;;6.50;;
63046;SDS011;62025;39.238;9.126;2023-07-13T12:17:18;19.42;;;6.07;;
63046;SDS011;62025;39.238;9.126;2023-07-13T12:19:55;16.88;;;6.28;;
63046;SDS011;62025;39.238;9.126;2023-07-13T12:22:22;21.60;;;6.22;;
63046;SDS011;62025;39.238;9.126;2023-07-13T12:24:48;14.52;;;5.90;;
63046;SDS011;62025;39.238;9.126;2023-07-13T12:27:24;16.40;;;6.53;;
63046;SDS011;62025;39.238;9.126;2023-07-13T12:29:57;19.67;;;6.75;;
63046;SDS011;62025;39.238;9.126;2023-07-13T12:32:26;15.25;;;5.65;;
63046;SDS011;62025;39.238;9.126;2023-07-13T12:34:56;20.08;;;6.78;;
63046;SDS011;62025;39.238;9.126;2023-07-13T12:37:45;17.15;;;6.32;;
63046;SDS011;62025;39.238;9.126;2023-07-13T12:40:21;18.15;;;7.18;;
63046;SDS011;62025;39.238;9.126;2023-07-13T12:45:26;22.27;;;6.20;;
63046;SDS011;62025;39.238;9.126;2023-07-13T12:50:28;21.17;;;5.95;;
63046;SDS011;62025;39.238;9.126;2023-07-13T12:53:13;15.98;;;6.32;;
63046;SDS011;62025;39.238;9.126;2023-07-13T12:55:48;18.65;;;6.43;;
63046;SDS011;62025;39.238;9.126;2023-07-13T13:01:06;21.92;;;6.50;;
63046;SDS011;62025;39.238;9.126;2023-07-13T13:03:36;18.27;;;6.18;;
63046;SDS011;62025;39.238;9.126;2023-07-13T13:06:17;25.63;;;5.65;;
63046;SDS011;62025;39.238;9.126;2023-07-13T13:08:53;20.95;;;6.20;;
63046;SDS011;62025;39.238;9.126;2023-07-13T13:11:24;20.05;;;6.00;;
63046;SDS011;62025;39.238;9.126;2023-07-13T13:13:52;23.65;;;6.35;;
63046;SDS011;62025;39.238;9.126;2023-07-13T13:18:54;15.95;;;6.45;;
63046;SDS011;62025;39.238;9.126;2023-07-13T13:21:22;13.50;;;5.43;;
63046;SDS011;62025;39.238;9.126;2023-07-13T13:23:50;16.52;;;5.75;;
63046;SDS011;62025;39.238;9.126;2023-07-13T13:26:18;19.73;;;5.90;;
63046;SDS011;62025;39.238;9.126;2023-07-13T13:28:46;19.80;;;6.00;;
63046;SDS011;62025;39.238;9.126;2023-07-13T13:31:15;16.35;;;5.18;;
63046;SDS011;62025;39.238;9.126;2023-07-13T13:33:42;13.95;;;5.82;;
63046;SDS011;62025;39.238;9.126;2023-07-13T13:36:20;21.85;;;5.88;;
63046;SDS011;62025;39.238;9.126;2023-07-13T13:41:15;22.87;;;6.13;;
63046;SDS011;62025;39.238;9.126;2023-07-13T13:43:41;20.92;;;5.55;;
63046;SDS011;62025;39.238;9.126;2023-07-13T13:46:19;16.13;;;5.38;;
63046;SDS011;62025;39.238;9.126;2023-07-13T13:48:50;21.27;;;5.88;;
63046;SDS011;62025;39.238;9.126;2023-07-13T13:53:45;18.85;;;5.30;;
63046;SDS011;62025;39.238;9.126;2023-07-13T13:56:13;19.92;;;5.07;;
63046;SDS011;62025;39.238;9.126;2023-07-13T13:58:40;18.50;;;5.93;;
63046;SDS011;62025;39.238;9.126;2023-07-13T14:01:30;17.40;;;5.75;;
63046;SDS011;62025;39.238;9.126;2023-07-13T14:03:56;21.17;;;6.18;;
63046;SDS011;62025;39.238;9.126;2023-07-13T14:06:22;17.95;;;5.75;;
63046;SDS011;62025;39.238;9.126;2023-07-13T14:08:48;19.42;;;5.65;;
63046;SDS011;62025;39.238;9.126;2023-07-13T14:11:15;22.08;;;5.55;;
63046;SDS011;62025;39.238;9.126;2023-07-13T14:13:51;15.98;;;5.72;;
63046;SDS011;62025;39.238;9.126;2023-07-13T14:18:53;15.82;;;5.63;;
63046;SDS011;62025;39.238;9.126;2023-07-13T14:21:21;15.95;;;5.68;;
63046;SDS011;62025;39.238;9.126;2023-07-13T14:23:48;20.40;;;5.28;;
63046;SDS011;62025;39.238;9.126;2023-07-13T14:26:16;18.42;;;5.22;;
63046;SDS011;62025;39.238;9.126;2023-07-13T14:28:49;22.92;;;5.07;;
63046;SDS011;62025;39.238;9.126;2023-07-13T14:31:21;23.45;;;5.53;;
63046;SDS011;62025;39.238;9.126;2023-07-13T14:33:49;14.00;;;4.97;;
63046;SDS011;62025;39.238;9.126;2023-07-13T14:36:24;21.05;;;5.55;;
63046;SDS011;62025;39.238;9.126;2023-07-13T14:39:01;18.80;;;5.55;;
63046;SDS011;62025;39.238;9.126;2023-07-13T14:41:37;24.08;;;5.18;;
63046;SDS011;62025;39.238;9.126;2023-07-13T14:44:16;27.90;;;5.85;;
63046;SDS011;62025;39.238;9.126;2023-07-13T14:46:46;26.17;;;5.38;;
63046;SDS011;62025;39.238;9.126;2023-07-13T14:52:13;18.52;;;5.07;;
63046;SDS011;62025;39.238;9.126;2023-07-13T14:54:45;24.80;;;5.45;;
63046;SDS011;62025;39.238;9.126;2023-07-13T14:57:12;23.88;;;5.20;;
63046;SDS011;62025;39.238;9.126;2023-07-13T14:59:44;28.92;;;6.55;;
63046;SDS011;62025;39.238;9.126;2023-07-13T15:02:19;20.42;;;5.38;;
63046;SDS011;62025;39.238;9.126;2023-07-13T15:05:00;16.48;;;5.30;;
63046;SDS011;62025;39.238;9.126;2023-07-13T15:07:30;23.40;;;6.28;;
63046;SDS011;62025;39.238;9.126;2023-07-13T15:09:56;20.08;;;5.50;;
63046;SDS011;62025;39.238;9.126;2023-07-13T15:12:22;28.63;;;6.68;;
63046;SDS011;62025;39.238;9.126;2023-07-13T15:14:48;25.83;;;6.30;;
63046;SDS011;62025;39.238;9.126;2023-07-13T15:17:25;27.75;;;6.13;;
63046;SDS011;62025;39.238;9.126;2023-07-13T15:22:46;21.88;;;5.63;;
63046;SDS011;62025;39.238;9.126;2023-07-13T15:25:21;28.40;;;5.70;;
63046;SDS011;62025;39.238;9.126;2023-07-13T15:27:52;25.40;;;5.43;;
63046;SDS011;62025;39.238;9.126;2023-07-13T15:30:20;21.50;;;5.80;;
63046;SDS011;62025;39.238;9.126;2023-07-13T15:32:47;30.90;;;8.87;;
63046;SDS011;62025;39.238;9.126;2023-07-13T15:35:17;48.38;;;18.58;;
63046;SDS011;62025;39.238;9.126;2023-07-13T15:37:46;40.58;;;13.07;;
63046;SDS011;62025;39.238;9.126;2023-07-13T15:40:13;28.37;;;9.10;;
63046;SDS011;62025;39.238;9.126;2023-07-13T15:42:44;36.05;;;8.02;;
63046;SDS011;62025;39.238;9.126;2023-07-13T15:45:14;32.08;;;6.93;;
63046;SDS011;62025;39.238;9.126;2023-07-13T15:47:47;28.50;;;8.15;;
63046;SDS011;62025;39.238;9.126;2023-07-13T15:50:15;53.20;;;12.88;;
63046;SDS011;62025;39.238;9.126;2023-07-13T15:52:47;44.22;;;16.40;;
63046;SDS011;62025;39.238;9.126;2023-07-13T15:55:18;39.80;;;14.75;;
63046;SDS011;62025;39.238;9.126;2023-07-13T15:57:48;46.50;;;11.07;;
63046;SDS011;62025;39.238;9.126;2023-07-13T16:00:17;43.08;;;10.35;;
63046;SDS011;62025;39.238;9.126;2023-07-13T16:02:52;39.00;;;7.93;;
63046;SDS011;62025;39.238;9.126;2023-07-13T16:05:19;32.22;;;7.13;;
63046;SDS011;62025;39.238;9.126;2023-07-13T16:07:48;38.92;;;12.77;;
63046;SDS011;62025;39.238;9.126;2023-07-13T16:10:16;39.78;;;13.27;;
63046;SDS011;62025;39.238;9.126;2023-07-13T16:12:45;33.28;;;8.30;;
63046;SDS011;62025;39.238;9.126;2023-07-13T16:15:16;37.53;;;11.07;;